Time;durP1;ratioP1;P1;durP2;ratioP2;P2;SDS_P1;SDS_P2;PMS_P1;PMS_P2;Temp;Humidity;BMP_temperature;BMP_pressure;BME280_temperature;BME280_humidity;BME280_pressure;Samples;Min_cycle;Max_cycle;Signal;HPM_P1;HPM_P2
2023/07/13 00:01:51;;;;;;;6.88;4.05;;;32.20;99.90;;;;;;5031136;28;20037;-49
2023/07/13 00:04:20;;;;;;;9.45;5.22;;;32.20;99.90;;;;;;5031284;28;20064;-49
2023/07/13 00:06:47;;;;;;;14.13;5.40;;;32.20;99.90;;;;;;5033282;28;20017;-50
2023/07/13 00:09:17;;;;;;;12.57;6.87;;;32.20;99.90;;;;;;5033617;28;20387;-49
2023/07/13 00:11:44;;;;;;;11.23;6.05;;;32.20;99.90;;;;;;5033410;28;20537;-48
2023/07/13 00:14:10;;;;;;;;;;;32.20;99.90;;;;;;5033664;28;20032;-49
2023/07/13 00:16:38;;;;;;;15.87;8.43;;;32.20;99.90;;;;;;5033106;28;19905;-49
2023/07/13 00:19:05;;;;;;;17.73;9.90;;;32.20;99.90;;;;;;5033228;28;20553;-49
2023/07/13 00:21:31;;;;;;;17.13;8.60;;;32.10;99.90;;;;;;5033397;28;20028;-48
2023/07/13 00:23:57;;;;;;;13.27;8.60;;;32.10;99.90;;;;;;5031855;28;20112;-48
2023/07/13 00:26:22;;;;;;;12.30;8.20;;;32.10;99.90;;;;;;5033056;28;20071;-48
2023/07/13 00:28:49;;;;;;;16.42;8.40;;;32.10;99.90;;;;;;5033022;28;20029;-49
2023/07/13 00:31:15;;;;;;;14.43;8.05;;;32.10;99.90;;;;;;5031715;28;20061;-49
2023/07/13 00:33:41;;;;;;;19.90;8.23;;;32.10;99.90;;;;;;5032975;28;20071;-49
2023/07/13 00:36:08;;;;;;;9.93;6.38;;;32.10;99.90;;;;;;5032073;28;20104;-49
2023/07/13 00:38:34;;;;;;;10.82;6.75;;;32.10;99.90;;;;;;5029174;28;20068;-49
2023/07/13 00:40:59;;;;;;;13.18;7.60;;;32.00;99.90;;;;;;5032240;28;20481;-49
2023/07/13 00:43:27;;;;;;;12.77;7.80;;;32.10;99.90;;;;;;5032942;28;20365;-50
2023/07/13 00:45:53;;;;;;;17.27;9.38;;;32.10;99.90;;;;;;5030666;28;20037;-49
2023/07/13 00:48:22;;;;;;;12.55;7.25;;;32.10;99.90;;;;;;5031846;28;20021;-49
2023/07/13 00:50:51;;;;;;;14.95;8.32;;;32.10;99.90;;;;;;5032768;28;20045;-49
2023/07/13 00:53:18;;;;;;;11.82;9.38;;;32.10;99.90;;;;;;5032774;28;20541;-49
2023/07/13 00:55:44;;;;;;;16.15;8.32;;;32.10;99.90;;;;;;5031032;28;20040;-49
2023/07/13 00:58:10;;;;;;;14.40;8.33;;;32.10;99.90;;;;;;5032221;28;20021;-49
2023/07/13 01:00:38;;;;;;;17.35;7.78;;;32.10;99.90;;;;;;5033326;28;20036;-49
2023/07/13 01:03:04;;;;;;;15.68;7.70;;;32.00;99.90;;;;;;5032987;28;20388;-48
2023/07/13 01:05:33;;;;;;;11.97;7.07;;;32.00;99.90;;;;;;5032682;28;20022;-49
2023/07/13 01:08:00;;;;;;;10.50;7.05;;;32.00;99.90;;;;;;5032547;28;20274;-48
2023/07/13 01:10:27;;;;;;;12.40;5.85;;;32.00;99.90;;;;;;5031072;28;20120;-48
2023/07/13 01:12:54;;;;;;;12.00;6.95;;;32.00;99.90;;;;;;5032574;28;20038;-48
2023/07/13 01:15:45;;;;;;;11.73;5.40;;;32.10;99.90;;;;;;5032611;28;20366;-49
2023/07/13 01:18:21;;;;;;;20.85;7.30;;;32.00;99.90;;;;;;5031647;28;20045;-48
2023/07/13 01:21:05;;;;;;;10.07;6.25;;;32.10;99.90;;;;;;5031944;28;20025;-48
2023/07/13 01:23:31;;;;;;;11.30;5.38;;;32.00;99.90;;;;;;5032461;28;20030;-49
2023/07/13 01:25:58;;;;;;;11.98;5.60;;;32.10;99.90;;;;;;5032344;28;20516;-49
2023/07/13 01:28:26;;;;;;;11.55;5.22;;;32.10;99.90;;;;;;5032260;28;20092;-49
2023/07/13 01:30:54;;;;;;;13.55;6.20;;;32.00;99.90;;;;;;5032162;28;20041;-49
2023/07/13 01:33:20;;;;;;;6.55;4.93;;;32.00;99.90;;;;;;5032162;28;20073;-49
2023/07/13 01:35:46;;;;;;;15.15;6.60;;;32.10;99.90;;;;;;5032420;28;20033;-49
2023/07/13 01:38:15;;;;;;;14.87;7.03;;;32.00;99.90;;;;;;5032223;28;20017;-50
2023/07/13 01:40:42;;;;;;;13.88;6.97;;;32.00;99.90;;;;;;5032120;28;20045;-49
2023/07/13 01:43:08;;;;;;;9.32;5.70;;;32.00;99.90;;;;;;5032226;28;20030;-48
2023/07/13 01:45:33;;;;;;;7.93;5.32;;;32.00;99.90;;;;;;5032377;28;20069;-49
2023/07/13 01:47:59;;;;;;;9.40;5.80;;;32.00;99.90;;;;;;5032063;28;20060;-50
2023/07/13 01:50:26;;;;;;;9.57;4.40;;;32.10;99.90;;;;;;5031782;28;20045;-50
2023/07/13 01:52:52;;;;;;;6.72;4.82;;;32.10;99.90;;;;;;5032236;28;20017;-50
2023/07/13 01:55:19;;;;;;;5.88;3.90;;;32.00;99.90;;;;;;5032001;28;20035;-50
2023/07/13 01:57:44;;;;;;;6.55;3.50;;;32.10;99.90;;;;;;5031942;28;21020;-50
2023/07/13 02:00:15;;;;;;;7.25;3.22;;;32.00;99.90;;;;;;5031942;28;20160;-50
2023/07/13 02:02:41;;;;;;;6.85;3.90;;;32.00;99.90;;;;;;5031895;28;20068;-50
2023/07/13 02:05:07;;;;;;;6.03;2.90;;;32.00;99.90;;;;;;5031827;28;20030;-50
2023/07/13 02:07:33;;;;;;;6.07;3.22;;;32.00;99.90;;;;;;5031877;28;20444;-50
2023/07/13 02:09:59;;;;;;;9.82;3.10;;;32.00;99.90;;;;;;5031856;28;20095;-50
2023/07/13 02:12:24;;;;;;;9.50;2.50;;;32.00;99.90;;;;;;5031995;28;20500;-50
2023/07/13 02:14:50;;;;;;;6.57;2.30;;;32.00;99.90;;;;;;5032106;28;20027;-49
2023/07/13 02:17:16;;;;;;;4.22;2.53;;;32.00;99.90;;;;;;5030466;28;20125;-49
2023/07/13 02:19:42;;;;;;;3.38;2.60;;;32.00;99.90;;;;;;5031712;28;20029;-49
2023/07/13 02:22:07;;;;;;;4.60;2.28;;;32.00;99.90;;;;;;5031795;28;20026;-49
2023/07/13 02:24:33;;;;;;;7.35;2.85;;;32.00;99.90;;;;;;5031807;28;20544;-49
2023/07/13 02:26:59;;;;;;;3.88;2.42;;;32.00;99.90;;;;;;5031702;28;20029;-50
2023/07/13 02:29:25;;;;;;;4.60;2.28;;;32.00;99.90;;;;;;5031638;28;20405;-49
2023/07/13 02:31:50;;;;;;;5.07;2.58;;;31.90;99.90;;;;;;5032181;28;20036;-49
2023/07/13 02:34:16;;;;;;;7.97;2.13;;;32.00;99.90;;;;;;5035413;28;20021;-49
2023/07/13 02:36:42;;;;;;;4.25;2.92;;;32.00;99.90;;;;;;5035550;28;20029;-50
2023/07/13 02:39:09;;;;;;;6.93;2.20;;;32.00;99.90;;;;;;5035468;28;20078;-49
2023/07/13 02:41:35;;;;;;;3.85;2.50;;;32.00;99.90;;;;;;5035329;28;20045;-49
2023/07/13 02:44:05;;;;;;;5.53;2.22;;;32.00;99.90;;;;;;5034043;28;20069;-49
2023/07/13 02:46:36;;;;;;;5.07;2.22;;;31.90;99.90;;;;;;5035261;28;20025;-49
2023/07/13 02:49:02;;;;;;;5.00;2.35;;;31.90;99.90;;;;;;5035136;28;20105;-49
2023/07/13 02:51:28;;;;;;;6.78;2.50;;;31.90;99.90;;;;;;5035181;28;20061;-49
2023/07/13 02:53:54;;;;;;;6.13;2.70;;;31.90;99.90;;;;;;5035206;28;20381;-49
2023/07/13 02:56:24;;;;;;;3.85;2.78;;;31.90;99.90;;;;;;5035115;28;20035;-49
2023/07/13 02:58:50;;;;;;;6.68;2.70;;;31.90;99.90;;;;;;5034998;28;20462;-49
2023/07/13 03:01:18;;;;;;;7.38;3.20;;;31.90;99.90;;;;;;5038771;22;20062;-53
2023/07/13 03:03:46;;;;;;;10.68;4.35;;;31.90;99.90;;;;;;5014618;28;20105;-53
2023/07/13 03:06:12;;;;;;;6.50;4.20;;;31.90;99.90;;;;;;5000591;28;20105;-52
2023/07/13 03:08:38;;;;;;;4.97;3.83;;;31.90;99.90;;;;;;4997651;28;20081;-53
2023/07/13 03:11:08;;;;;;;5.70;3.83;;;31.90;99.90;;;;;;4999518;28;20042;-53
2023/07/13 03:13:34;;;;;;;10.43;4.28;;;31.90;99.90;;;;;;5006681;28;20023;-53
2023/07/13 03:16:00;;;;;;;10.57;4.32;;;31.90;99.90;;;;;;5006617;28;20069;-53
2023/07/13 03:18:27;;;;;;;13.05;3.35;;;31.90;99.90;;;;;;4995052;28;20046;-53
2023/07/13 03:20:53;;;;;;;10.02;3.80;;;31.90;99.90;;;;;;4995057;28;20030;-52
2023/07/13 03:23:21;;;;;;;13.50;4.03;;;31.90;99.90;;;;;;4999375;28;20057;-53
2023/07/13 03:25:46;;;;;;;;;;;31.90;99.90;;;;;;5003323;28;20482;-53
2023/07/13 03:28:12;;;;;;;6.00;2.77;;;31.90;99.90;;;;;;4994827;28;19996;-53
2023/07/13 03:30:38;;;;;;;8.65;3.55;;;31.90;99.90;;;;;;4994754;28;20109;-53
2023/07/13 03:33:04;;;;;;;3.83;2.28;;;31.90;99.90;;;;;;4994891;28;20109;-53
2023/07/13 03:35:30;;;;;;;7.25;2.90;;;31.90;99.90;;;;;;4994856;28;20034;-54
2023/07/13 03:37:56;;;;;;;4.25;2.55;;;31.90;99.90;;;;;;4994492;28;20025;-53
2023/07/13 03:40:22;;;;;;;5.38;2.88;;;31.90;99.90;;;;;;4994740;28;20034;-53
2023/07/13 03:42:48;;;;;;;5.15;3.05;;;31.90;99.90;;;;;;4994242;28;20038;-54
2023/07/13 03:45:14;;;;;;;5.07;2.60;;;31.90;99.90;;;;;;4994332;28;20023;-53
2023/07/13 03:47:39;;;;;;;6.97;3.20;;;31.90;99.90;;;;;;4994406;28;20363;-54
2023/07/13 03:50:06;;;;;;;4.45;2.90;;;31.90;99.90;;;;;;5009237;28;20092;-53
2023/07/13 03:52:31;;;;;;;4.93;2.40;;;31.90;99.90;;;;;;4994452;28;20058;-54
2023/07/13 03:54:57;;;;;;;5.57;2.90;;;31.90;99.90;;;;;;4996100;28;20049;-55
2023/07/13 03:57:23;;;;;;;4.38;2.40;;;31.90;99.90;;;;;;5005514;28;20479;-55
2023/07/13 03:59:49;;;;;;;5.85;2.20;;;31.90;99.90;;;;;;4994314;28;20167;-55
2023/07/13 04:02:14;;;;;;;8.40;2.25;;;31.90;99.90;;;;;;4994423;28;20079;-54
2023/07/13 04:04:40;;;;;;;4.13;2.63;;;31.90;99.90;;;;;;4994088;28;20030;-55
2023/07/13 04:07:08;;;;;;;5.80;2.53;;;31.90;99.90;;;;;;4994275;28;20139;-54
2023/07/13 04:09:34;;;;;;;4.90;2.58;;;31.90;99.90;;;;;;5015150;28;20024;-55
2023/07/13 04:12:00;;;;;;;3.00;2.50;;;31.90;99.90;;;;;;5004278;28;20026;-54
2023/07/13 04:14:25;;;;;;;5.72;2.33;;;31.90;99.90;;;;;;4996655;28;20018;-54
2023/07/13 04:16:51;;;;;;;5.53;2.90;;;31.90;99.90;;;;;;4993698;28;20034;-55
2023/07/13 04:19:17;;;;;;;7.72;2.25;;;31.90;99.90;;;;;;5006604;28;20092;-55
2023/07/13 04:21:43;;;;;;;6.03;2.58;;;31.90;99.90;;;;;;5002830;28;20022;-55
2023/07/13 04:24:09;;;;;;;3.28;2.42;;;31.90;99.90;;;;;;4998078;28;20105;-55
2023/07/13 04:26:38;;;;;;;6.72;2.92;;;31.80;99.90;;;;;;5006197;28;20386;-55
2023/07/13 04:29:04;;;;;;;3.88;2.53;;;31.90;99.90;;;;;;4993691;28;20368;-55
2023/07/13 04:31:31;;;;;;;8.48;2.80;;;31.80;99.90;;;;;;4999591;28;20490;-55
2023/07/13 04:33:56;;;;;;;8.87;2.97;;;31.90;99.90;;;;;;5000486;28;20023;-54
2023/07/13 04:36:22;;;;;;;4.60;3.08;;;31.90;99.90;;;;;;5000233;28;20358;-55
2023/07/13 04:38:48;;;;;;;6.93;3.05;;;31.90;99.90;;;;;;5001198;28;20018;-54
2023/07/13 04:41:15;;;;;;;7.88;2.85;;;31.80;99.90;;;;;;5010589;28;20037;-54
2023/07/13 04:43:41;;;;;;;9.02;3.10;;;31.90;99.90;;;;;;5001142;28;20097;-53
2023/07/13 04:46:10;;;;;;;14.70;3.85;;;31.90;99.90;;;;;;5006116;28;20022;-53
2023/07/13 04:48:37;;;;;;;10.18;3.63;;;31.80;99.90;;;;;;5002945;28;20482;-53
2023/07/13 04:51:04;;;;;;;10.20;3.22;;;31.90;99.90;;;;;;4997857;28;20557;-54
2023/07/13 04:53:30;;;;;;;9.50;2.92;;;31.90;99.90;;;;;;5003085;28;20042;-54
2023/07/13 04:55:56;;;;;;;5.35;2.60;;;31.90;99.90;;;;;;4992724;28;20479;-54
2023/07/13 04:58:23;;;;;;;10.30;3.30;;;31.90;99.90;;;;;;4993168;28;20474;-54
2023/07/13 05:00:49;;;;;;;7.55;2.80;;;31.90;99.90;;;;;;4992864;28;20126;-55
2023/07/13 05:03:15;;;;;;;11.43;2.80;;;31.90;99.90;;;;;;4993175;28;20089;-56
2023/07/13 05:05:41;;;;;;;7.53;2.78;;;31.90;99.90;;;;;;4992744;28;20032;-54
2023/07/13 05:08:07;;;;;;;9.40;2.92;;;31.90;99.90;;;;;;4993001;28;20026;-52
2023/07/13 05:10:35;;;;;;;6.88;2.65;;;31.90;99.90;;;;;;4992854;28;20045;-53
2023/07/13 05:13:00;;;;;;;15.00;2.85;;;31.90;99.90;;;;;;4992789;28;20030;-53
2023/07/13 05:15:26;;;;;;;11.98;3.25;;;31.90;99.90;;;;;;4992928;28;20023;-53
2023/07/13 05:17:52;;;;;;;10.80;2.88;;;31.90;99.90;;;;;;4992661;28;20019;-53
2023/07/13 05:20:19;;;;;;;14.15;3.60;;;31.90;99.90;;;;;;4992758;28;20033;-55
2023/07/13 05:22:46;;;;;;;9.38;3.53;;;31.90;99.90;;;;;;4992669;28;20370;-55
2023/07/13 05:25:12;;;;;;;;;;;31.90;99.90;;;;;;5002467;28;20497;-55
2023/07/13 05:27:39;;;;;;;12.00;3.72;;;31.80;99.90;;;;;;4996493;28;19913;-55
2023/07/13 05:30:05;;;;;;;14.38;4.10;;;31.80;99.90;;;;;;4992663;28;20081;-53
2023/07/13 05:32:31;;;;;;;15.68;4.90;;;31.80;99.90;;;;;;5005205;28;20899;-54
2023/07/13 05:34:57;;;;;;;18.17;3.72;;;31.80;99.90;;;;;;4992790;28;20022;-54
2023/07/13 05:37:23;;;;;;;14.93;4.63;;;31.80;99.90;;;;;;4992724;28;20077;-55
2023/07/13 05:39:48;;;;;;;14.60;3.55;;;31.80;99.90;;;;;;5005287;28;20029;-54
2023/07/13 05:42:14;;;;;;;13.82;4.13;;;31.70;99.90;;;;;;4992330;28;20018;-53
2023/07/13 05:44:41;;;;;;;15.05;3.95;;;31.70;99.90;;;;;;4997717;28;20049;-53
2023/07/13 05:47:06;;;;;;;13.18;4.35;;;31.70;99.90;;;;;;5000091;28;20430;-53
2023/07/13 05:49:32;;;;;;;15.05;4.00;;;31.60;99.90;;;;;;5007240;28;20025;-54
2023/07/13 05:51:58;;;;;;;14.65;4.43;;;31.60;99.90;;;;;;4992646;28;20037;-54
2023/07/13 05:54:24;;;;;;;15.73;4.45;;;31.60;99.90;;;;;;5007435;28;20018;-53
2023/07/13 05:56:49;;;;;;;16.98;3.55;;;31.60;99.90;;;;;;4992390;28;20109;-53
2023/07/13 05:59:15;;;;;;;11.55;4.28;;;31.50;99.90;;;;;;4992116;28;20015;-55
2023/07/13 06:01:41;;;;;;;9.07;3.70;;;31.50;99.90;;;;;;4992023;28;20089;-54
2023/07/13 06:04:07;;;;;;;14.30;3.67;;;31.50;99.90;;;;;;4992276;28;20054;-53
2023/07/13 06:06:33;;;;;;;10.23;3.53;;;31.50;99.90;;;;;;4993823;28;20104;-55
2023/07/13 06:08:59;;;;;;;12.13;3.47;;;31.50;99.90;;;;;;4995992;28;20037;-54
2023/07/13 06:11:27;;;;;;;24.50;4.28;;;31.50;99.90;;;;;;4996339;28;20038;-54
2023/07/13 06:13:53;;;;;;;17.90;3.80;;;31.40;99.90;;;;;;5014015;28;20038;-54
2023/07/13 06:16:20;;;;;;;10.23;4.00;;;31.40;99.90;;;;;;4995773;28;20055;-54
2023/07/13 06:18:46;;;;;;;11.45;3.67;;;31.40;99.90;;;;;;4996048;28;20315;-55
2023/07/13 06:21:15;;;;;;;14.40;3.95;;;31.30;99.90;;;;;;4996054;28;20023;-55
2023/07/13 06:23:41;;;;;;;16.58;4.10;;;31.40;99.90;;;;;;4995917;28;20485;-56
2023/07/13 06:26:07;;;;;;;11.55;3.72;;;31.40;99.90;;;;;;4995840;28;20050;-56
2023/07/13 06:28:34;;;;;;;15.20;3.85;;;31.40;99.90;;;;;;4995776;28;20019;-56
2023/07/13 06:31:01;;;;;;;12.68;4.13;;;31.40;99.90;;;;;;4997054;28;20031;-56
2023/07/13 06:33:27;;;;;;;10.23;4.07;;;31.40;99.90;;;;;;5007127;28;20541;-56
2023/07/13 06:35:54;;;;;;;12.65;3.80;;;31.40;99.90;;;;;;4995691;28;20089;-59
2023/07/13 06:38:20;;;;;;;;;;;31.30;99.90;;;;;;4996105;28;20097;-54
2023/07/13 06:40:46;;;;;;;18.73;4.43;;;31.40;99.90;;;;;;4995514;28;19906;-54
2023/07/13 06:43:12;;;;;;;13.20;4.22;;;31.40;99.90;;;;;;4995636;28;20476;-55
2023/07/13 06:45:47;;;;;;;14.38;4.90;;;31.30;99.90;;;;;;5008765;28;20046;-55
2023/07/13 06:48:13;;;;;;;16.90;4.50;;;31.40;99.90;;;;;;5010036;28;20486;-54
2023/07/13 06:50:39;;;;;;;14.85;4.25;;;31.40;99.90;;;;;;5011647;28;20514;-55
2023/07/13 06:53:05;;;;;;;7.95;3.58;;;31.40;99.90;;;;;;5006837;28;20023;-55
2023/07/13 06:55:30;;;;;;;17.02;4.55;;;31.30;99.90;;;;;;5010534;28;20031;-55
2023/07/13 06:57:57;;;;;;;16.42;4.30;;;31.40;99.90;;;;;;4995567;28;20029;-55
2023/07/13 07:00:23;;;;;;;10.40;4.13;;;31.40;99.90;;;;;;4995035;28;20478;-55
2023/07/13 07:02:48;;;;;;;15.40;5.82;;;31.40;99.90;;;;;;4995175;28;20129;-54
2023/07/13 07:05:14;;;;;;;11.75;5.10;;;31.40;99.90;;;;;;5007364;28;20037;-57
2023/07/13 07:07:40;;;;;;;11.07;4.32;;;31.30;99.90;;;;;;5023274;28;20390;-55
2023/07/13 07:10:06;;;;;;;17.50;6.15;;;31.40;99.90;;;;;;4997452;28;20034;-55
2023/07/13 07:12:32;;;;;;;16.77;6.60;;;31.40;99.90;;;;;;5002834;28;20363;-55
2023/07/13 07:14:58;;;;;;;18.65;6.32;;;31.40;99.90;;;;;;5001761;28;20097;-55
2023/07/13 07:17:25;;;;;;;15.48;6.25;;;31.40;99.90;;;;;;4994433;28;20023;-55
2023/07/13 07:19:53;;;;;;;;;;;31.40;99.90;;;;;;4995075;28;20030;-55
2023/07/13 07:22:20;;;;;;;15.52;5.53;;;31.40;99.90;;;;;;4994821;28;20018;-55
2023/07/13 07:24:45;;;;;;;17.03;6.03;;;31.40;99.90;;;;;;4994720;28;20422;-55
2023/07/13 07:27:11;;;;;;;19.90;5.85;;;31.40;99.90;;;;;;5000839;28;20034;-56
2023/07/13 07:29:37;;;;;;;20.77;6.43;;;31.40;99.90;;;;;;5014130;28;20030;-56
2023/07/13 07:32:03;;;;;;;18.80;7.20;;;31.50;99.90;;;;;;5014056;28;20410;-57
2023/07/13 07:34:30;;;;;;;14.38;6.40;;;31.50;99.90;;;;;;5014247;28;20053;-56
2023/07/13 07:37:00;;;;;;;19.80;6.72;;;31.50;99.90;;;;;;5014375;28;20100;-55
2023/07/13 07:39:26;;;;;;;18.00;6.55;;;31.50;99.90;;;;;;5008562;28;20034;-55
2023/07/13 07:41:52;;;;;;;18.88;7.22;;;31.50;99.90;;;;;;5013509;28;20026;-55
2023/07/13 07:44:18;;;;;;;18.02;8.13;;;31.60;99.90;;;;;;5005072;28;20498;-56
2023/07/13 07:46:44;;;;;;;15.55;6.80;;;31.50;99.90;;;;;;5022748;28;20037;-55
2023/07/13 07:49:10;;;;;;;22.27;8.52;;;31.60;99.90;;;;;;4996524;28;20053;-55
2023/07/13 07:51:36;;;;;;;16.35;7.82;;;31.60;99.90;;;;;;5013424;28;20041;-55
2023/07/13 07:54:03;;;;;;;18.98;8.35;;;31.60;99.90;;;;;;5013516;28;20146;-55
2023/07/13 07:56:29;;;;;;;18.75;7.57;;;31.60;99.90;;;;;;5014239;28;20030;-55
2023/07/13 07:58:54;;;;;;;15.55;7.63;;;31.60;99.90;;;;;;5013852;28;20028;-55
2023/07/13 08:01:20;;;;;;;17.92;7.32;;;31.60;99.90;;;;;;5013341;28;20052;-56
2023/07/13 08:03:46;;;;;;;20.88;6.93;;;31.70;99.90;;;;;;5013590;28;20022;-55
2023/07/13 08:06:12;;;;;;;22.80;6.95;;;31.60;99.90;;;;;;5013681;28;20131;-54
2023/07/13 08:08:37;;;;;;;18.92;7.65;;;31.70;99.90;;;;;;5024845;28;20112;-57
2023/07/13 08:11:06;;;;;;;20.10;6.53;;;31.70;99.90;;;;;;5000365;28;20038;-55
2023/07/13 08:13:31;;;;;;;18.60;7.45;;;31.70;99.90;;;;;;5013767;28;20025;-54
2023/07/13 08:15:57;;;;;;;17.20;6.72;;;31.70;99.90;;;;;;5013549;28;20022;-54
2023/07/13 08:18:23;;;;;;;18.20;6.75;;;31.70;99.90;;;;;;5013671;28;20022;-55
2023/07/13 08:20:49;;;;;;;20.33;7.95;;;31.70;99.90;;;;;;5013400;28;20030;-57
2023/07/13 08:23:16;;;;;;;19.75;7.60;;;31.70;99.90;;;;;;5013399;28;20480;-57
2023/07/13 08:25:42;;;;;;;16.23;6.82;;;31.70;99.90;;;;;;5028422;28;20033;-55
2023/07/13 08:28:08;;;;;;;17.42;7.47;;;31.70;99.90;;;;;;5013517;28;20126;-54
2023/07/13 08:30:34;;;;;;;16.45;7.07;;;31.70;99.90;;;;;;5011845;28;20121;-55
2023/07/13 08:33:00;;;;;;;19.98;7.00;;;31.70;99.90;;;;;;5013310;28;20021;-54
2023/07/13 08:35:25;;;;;;;18.95;7.45;;;31.70;99.90;;;;;;5013135;28;20029;-54
2023/07/13 08:37:52;;;;;;;18.85;8.70;;;31.80;99.90;;;;;;5011288;28;20520;-55
2023/07/13 08:40:23;;;;;;;26.70;11.07;;;31.80;99.90;;;;;;5004348;28;20077;-52
2023/07/13 08:42:59;;;;;;;18.52;9.00;;;31.80;99.90;;;;;;5008688;28;20030;-52
2023/07/13 08:45:43;;;;;;;24.02;10.23;;;31.80;99.90;;;;;;5003941;28;20045;-54
2023/07/13 08:48:16;;;;;;;18.05;10.30;;;31.80;99.90;;;;;;5007334;28;20034;-54
2023/07/13 08:51:04;;;;;;;22.85;10.05;;;31.80;99.90;;;;;;5010513;28;20037;-54
2023/07/13 08:53:37;;;;;;;21.02;11.40;;;31.80;99.90;;;;;;5005566;28;20038;-55
2023/07/13 08:56:11;;;;;;;25.77;10.88;;;31.80;99.90;;;;;;5008131;28;20383;-55
2023/07/13 08:58:39;;;;;;;28.55;12.30;;;31.80;99.90;;;;;;5009817;28;20034;-55
2023/07/13 09:01:28;;;;;;;20.98;10.68;;;31.90;99.90;;;;;;5009794;28;20038;-55
2023/07/13 09:04:08;;;;;;;23.80;11.70;;;31.90;99.90;;;;;;5009563;28;20042;-55
2023/07/13 09:06:59;;;;;;;23.55;10.98;;;31.80;99.90;;;;;;5007607;28;20033;-55
2023/07/13 09:09:43;;;;;;;29.70;11.73;;;31.90;99.90;;;;;;5005356;28;20502;-56
2023/07/13 09:12:26;;;;;;;22.00;11.27;;;31.90;99.90;;;;;;5010364;28;20255;-55
2023/07/13 09:14:56;;;;;;;27.25;11.27;;;31.90;99.90;;;;;;5004746;28;20076;-55
2023/07/13 09:17:29;;;;;;;31.05;10.68;;;32.00;99.90;;;;;;5002866;28;20040;-54
2023/07/13 09:20:31;;;;;;;28.60;12.93;;;32.00;99.90;;;;;;4998405;28;20026;-55
2023/07/13 09:23:04;;;;;;;26.73;10.90;;;32.00;99.90;;;;;;4995645;28;20014;-59
2023/07/13 09:25:33;;;;;;;27.92;11.80;;;32.00;99.90;;;;;;4992690;28;20030;-56
2023/07/13 09:28:18;;;;;;;26.00;12.27;;;32.00;99.90;;;;;;4992868;28;20030;-53
2023/07/13 09:30:51;;;;;;;27.77;10.93;;;32.00;99.90;;;;;;5021695;28;20041;-55
2023/07/13 09:33:17;;;;;;;28.80;13.25;;;32.00;99.90;;;;;;4993813;28;20014;-54
2023/07/13 09:35:42;;;;;;;24.90;12.40;;;32.00;99.90;;;;;;4992617;28;20033;-54
2023/07/13 09:38:13;;;;;;;30.02;13.32;;;32.00;99.90;;;;;;5009047;28;20022;-54
2023/07/13 09:41:08;;;;;;;32.85;13.45;;;32.10;99.90;;;;;;4993840;28;20019;-54
2023/07/13 09:43:35;;;;;;;26.50;12.80;;;32.10;99.90;;;;;;4992511;28;20109;-55
2023/07/13 09:46:01;;;;;;;27.02;13.55;;;32.10;99.90;;;;;;5020370;28;20018;-55
2023/07/13 09:48:34;;;;;;;27.13;14.02;;;32.10;99.90;;;;;;4992241;28;20023;-55
2023/07/13 09:51:12;;;;;;;29.23;14.10;;;32.10;99.90;;;;;;4991013;28;20040;-55
2023/07/13 09:53:44;;;;;;;25.60;13.77;;;32.10;99.90;;;;;;5003143;28;20042;-56
2023/07/13 09:56:42;;;;;;;31.92;14.52;;;32.10;99.90;;;;;;5017190;28;20026;-55
2023/07/13 09:59:19;;;;;;;24.80;13.65;;;32.10;99.90;;;;;;4991023;28;20117;-55
2023/07/13 10:01:45;;;;;;;22.42;13.93;;;32.10;99.90;;;;;;5003644;28;20409;-56
2023/07/13 10:04:13;;;;;;;26.30;13.82;;;32.10;99.90;;;;;;5005732;28;20026;-55
2023/07/13 10:06:42;;;;;;;;;;;32.20;99.90;;;;;;5012305;28;20022;-56
2023/07/13 10:09:10;;;;;;;29.02;14.02;;;32.10;99.90;;;;;;5010996;28;19912;-56
2023/07/13 10:11:37;;;;;;;51.25;16.02;;;32.20;99.90;;;;;;4999347;28;20037;-51
2023/07/13 10:14:14;;;;;;;35.38;15.52;;;32.20;99.90;;;;;;5004985;28;20038;-52
2023/07/13 10:16:43;;;;;;;31.17;14.80;;;32.20;99.90;;;;;;4991901;28;20487;-51
2023/07/13 10:19:26;;;;;;;29.73;14.15;;;32.20;99.90;;;;;;4997852;28;20064;-52
2023/07/13 10:21:59;;;;;;;29.27;13.75;;;32.20;99.90;;;;;;5012104;28;20033;-52
2023/07/13 10:24:24;;;;;;;29.10;15.65;;;32.20;99.90;;;;;;5010485;28;20026;-52
2023/07/13 10:27:00;;;;;;;38.85;15.73;;;32.20;99.90;;;;;;4999373;28;20533;-52
2023/07/13 10:29:29;;;;;;;28.75;15.75;;;32.20;99.90;;;;;;4990791;28;20085;-51
2023/07/13 10:31:57;;;;;;;30.33;15.57;;;32.10;99.90;;;;;;5000288;28;20034;-52
2023/07/13 10:34:23;;;;;;;33.95;15.85;;;32.10;99.90;;;;;;4992889;28;20011;-52
2023/07/13 10:36:49;;;;;;;27.30;14.93;;;32.10;99.90;;;;;;4991172;28;20029;-51
2023/07/13 10:39:24;;;;;;;25.25;14.88;;;32.10;99.90;;;;;;5004247;28;20053;-51
2023/07/13 10:41:55;;;;;;;37.70;14.80;;;32.10;99.90;;;;;;4991235;28;20019;-51
2023/07/13 10:44:30;;;;;;;26.42;14.18;;;32.10;99.90;;;;;;4991160;28;20018;-51
2023/07/13 10:46:58;;;;;;;40.92;17.42;;;32.10;99.90;;;;;;4991556;28;20062;-51
2023/07/13 10:49:26;;;;;;;33.33;15.23;;;32.10;99.90;;;;;;4991647;28;20474;-51
2023/07/13 10:51:52;;;;;;;34.45;15.27;;;32.10;99.90;;;;;;4991783;28;20034;-52
2023/07/13 10:54:23;;;;;;;30.23;15.73;;;32.10;99.90;;;;;;4993971;28;20390;-51
2023/07/13 10:56:52;;;;;;;35.92;17.23;;;32.00;99.90;;;;;;4995365;28;20475;-51
2023/07/13 10:59:26;;;;;;;31.70;16.10;;;32.10;99.90;;;;;;4995190;28;20015;-51
2023/07/13 11:02:07;;;;;;;29.55;14.68;;;32.00;99.90;;;;;;4994781;28;20046;-51
2023/07/13 11:04:48;;;;;;;37.42;16.05;;;32.00;99.90;;;;;;4999879;28;20022;-51
2023/07/13 11:07:27;;;;;;;40.80;17.08;;;32.00;99.90;;;;;;5001376;28;20019;-51
2023/07/13 11:10:03;;;;;;;34.72;16.17;;;32.00;99.90;;;;;;4994597;28;20018;-51
2023/07/13 11:12:49;;;;;;;35.90;16.70;;;32.00;99.90;;;;;;4994980;28;20034;-52
2023/07/13 11:15:29;;;;;;;37.88;17.08;;;32.10;99.90;;;;;;4994864;28;20435;-52
2023/07/13 11:18:00;;;;;;;38.83;16.02;;;32.00;99.90;;;;;;5009919;28;20384;-51
2023/07/13 11:20:39;;;;;;;35.25;15.27;;;32.10;99.90;;;;;;4994919;28;20541;-52
2023/07/13 11:23:16;;;;;;;39.67;16.98;;;32.10;99.90;;;;;;4998148;28;20029;-52
2023/07/13 11:25:42;;;;;;;;;;;32.10;99.90;;;;;;5003142;28;20045;-52
2023/07/13 11:28:11;;;;;;;36.42;16.35;;;32.10;99.90;;;;;;4995009;28;20340;-51
2023/07/13 11:30:40;;;;;;;42.55;15.82;;;32.10;99.90;;;;;;5005158;28;20056;-51
2023/07/13 11:33:23;;;;;;;30.73;16.70;;;32.10;99.90;;;;;;4996901;28;20493;-51
2023/07/13 11:36:02;;;;;;;42.65;16.80;;;32.10;99.90;;;;;;4994713;28;20034;-51
2023/07/13 11:38:32;;;;;;;33.80;18.92;;;32.10;99.90;;;;;;4994407;28;20489;-51
2023/07/13 11:41:03;;;;;;;37.00;16.75;;;32.10;99.90;;;;;;4994340;28;20028;-52
2023/07/13 11:43:29;;;;;;;36.03;17.85;;;32.00;99.90;;;;;;4994484;28;20403;-51
2023/07/13 11:45:55;;;;;;;35.33;17.55;;;32.00;99.90;;;;;;4994332;28;20360;-52
2023/07/13 11:48:25;;;;;;;37.47;21.38;;;32.00;99.90;;;;;;4994497;28;20029;-51
2023/07/13 11:51:02;;;;;;;40.47;19.42;;;32.00;99.90;;;;;;4994307;28;20049;-51
2023/07/13 11:53:36;;;;;;;27.55;16.92;;;32.00;99.90;;;;;;4994217;28;20026;-51
2023/07/13 11:56:02;;;;;;;45.63;17.55;;;32.00;99.90;;;;;;4994079;28;20045;-51
2023/07/13 11:58:28;;;;;;;41.03;17.10;;;32.00;99.90;;;;;;4994561;28;20110;-51
2023/07/13 12:00:57;;;;;;;42.03;19.50;;;32.00;99.90;;;;;;4994217;28;20038;-51
2023/07/13 12:03:25;;;;;;;41.00;15.27;;;32.00;99.90;;;;;;4994259;28;20372;-52
2023/07/13 12:06:00;;;;;;;33.78;15.38;;;32.00;99.90;;;;;;5008943;28;20027;-52
2023/07/13 12:08:27;;;;;;;40.85;14.98;;;32.00;99.90;;;;;;4993934;28;20038;-52
2023/07/13 12:11:13;;;;;;;37.63;15.07;;;32.00;99.90;;;;;;4993891;28;20038;-52
2023/07/13 12:13:39;;;;;;;39.20;16.95;;;32.00;99.90;;;;;;4994204;28;20506;-52
2023/07/13 12:16:32;;;;;;;34.90;17.05;;;32.00;99.90;;;;;;4994258;28;20034;-52
2023/07/13 12:19:00;;;;;;;40.60;15.88;;;32.00;99.90;;;;;;5002762;28;20031;-52
2023/07/13 12:21:38;;;;;;;30.33;14.73;;;32.00;99.90;;;;;;4993838;28;20026;-51
2023/07/13 12:24:13;;;;;;;36.95;13.30;;;32.00;99.90;;;;;;5004528;28;20022;-51
2023/07/13 12:26:39;;;;;;;33.40;13.90;;;32.00;99.90;;;;;;4994395;28;20498;-52
2023/07/13 12:29:06;;;;;;;34.17;12.65;;;32.00;99.90;;;;;;4993667;28;20030;-51
2023/07/13 12:31:52;;;;;;;34.97;14.07;;;32.10;99.90;;;;;;4993330;28;20053;-51
2023/07/13 12:34:23;;;;;;;42.42;14.27;;;32.00;99.90;;;;;;4993667;28;20145;-51
2023/07/13 12:36:54;;;;;;;33.67;12.02;;;32.00;99.90;;;;;;4993615;28;20348;-52
2023/07/13 12:39:33;;;;;;;39.78;14.20;;;32.10;99.90;;;;;;4993426;28;20018;-51
2023/07/13 12:42:29;;;;;;;31.80;13.35;;;32.00;99.90;;;;;;4993526;28;20022;-52
2023/07/13 12:45:25;;;;;;;29.40;13.37;;;32.00;99.90;;;;;;4993516;28;20026;-52
2023/07/13 12:48:15;;;;;;;40.83;12.40;;;32.00;99.90;;;;;;4992884;28;20034;-52